Timeline UpdatesTrip UpdatesNews PostsPvt PostsTravel TipsAdmin PostsConv PostsFollowed PostsChat RequestsBlog PostsPNR Posts

Disclaimer
Search
 
 
Sat Aug 2, 2014 04:00:02 ISTHomeTrainsΣChainsAtlasPNRForumGalleryNewsFAQTripsMembersLoginFeedback
No Recent News for this Train
Other Trains in the News **new
Latest...
Cancelled on 3/8/14
Fri Aug 01, 2014 (08:09PM)
⇐ Return Journey: Train# 58118

58117/Jharsuguda-Gondia Passenger (UnReserved)

Aug 04 2013 (9:25PM)
Change Departure Station:
Change Arrival Station:
Post a Train Travel TipPost a Train Travel Tip **new
Post a Comment/Question/Picture/VideoPost a Comment/Question/Picture/Video
Pantry/Catering
???
RSA - Rake Sharing
Rake/Coach Composition
Loco
News    PNR    Forum    Time-Table    Availability    Fare Chart    Map    Arr/Dep History    Trips    Gallery    ΣChains    X/O    Timeline    
Travel Time: 14h 5m    62 halts    Distance: 487 km    Avg Speed: 34 km/hr
Type: Passenger
Zone: SER/South Eastern
Departs @ 07:15 (Avg on time)
Platform# ???
SMTWTFS
Jharsuguda Junction/JSG 
Arrives @ 21:20 (Avg 9m late)
Platform# 2
SMTWTFS
Gondia Junction/G 

62 halts. 64 intermediate Stations between Jharsuguda Junction and Gondia Junction

Show ALL intermediate Stations  Show Old Time-Table

#CodeStation NameX/OArrivesAvgDepartsAvgHaltPFDay#KmSpeedElevZoneAddress
1JSG»Jharsuguda Junction (5)»  -07:15+0--10.0108236mSERJharsuguda, Odisha
2IBIbX  07:20+1007:21+121m--19.080207mSECRJharsuguda, Odisha
3BRJNBrajrajnagar  07:23+1607:25+162m--111.789212mSECRBrajrajnagar, Odisha
4BPHBelpahar  07:31+2307:32+241m--120.667235mSECRBelpahar, Odisha
5HGRHimgir  07:44+2707:45+291m--134.056275mSECRNational Highway 200, Chhattisgarh
6DAODaghora  07:53+2807:54+291m--141.465269mSECRRaigarh, Chhattisgarh
7JMGJamga  08:05+2808:06+301m--153.464233mSECRJamga Station, Chhattisgarh
8KRLKotarlia  08:14+3008:15+321m--161.939229mSECRRaigarh, Chhattisgarh
9RIGRaigarh (3)O  08:30+2409:00+930m--171.772220mSECRRaigarh, Chhattisgarh
10KDTRKirodimalnagar (5)  09:06+1209:07+131m--178.861240mSECRRaigarh, Chhattisgarh
11BEFBhupdeopurX  09:16+1409:17+141m--188.160243mSECRRaigarh, Chhattisgarh
12ROBRobertsonXO  09:26+1709:27+211m--197.164239mSECRRaigarh, Chhattisgarh
13KHSKharsia  09:35+2209:36+231m--1105.652259mSECRNational Highway 200, Chhattisgarh
14JDIJharradihX  09:42+2709:44+302m--1110.868247mSECRRaigarh, Chhattisgarh
15SKTSakti (4)X  09:53+2809:54+321m--1121.036237mSECRJanjgir-Champa, Chhattisgarh
16JDDAJetha  10:07-10:08-1m--1128.871244mSECRNational Highway 200, Chhattisgarh
17BUABaradwarX  10:14+3210:15+341m--1135.956256mSECRJanjgir-Champa, Chhattisgarh
18SGRDSaragaon RoadX  10:22-10:23-1m--1142.436254mSECRNational Highway 200, Chhattisgarh
19CPHChampa Junction (3)X  10:38+3110:43+315m--1151.472264mSECRNational Highway 200 (07819-245767), Chhattisgarh
20NIANailaX  10:52+3810:53+431m--1162.248273mSECRJanjgir, Chhattisgarh
21KPNAKapan (1)X  11:02-11:03-1m11169.551263mSECRNational Highway 200, Chhattisgarh
22AKTAkaltara (4)  11:12+3911:13+401m--1177.255284mSECRDist. Janjgir Champa, Chhattisgarh
23KTSHKotmi Sonar HaltX  11:20-11:21-1m--1183.657266mSECRKotmisunar, Chhattisgarh
24JRMGJairamnagar  11:28+4411:29+451m--1190.335272mSECRNational Highway 200, Chhattisgarh
25GTWGatora  11:42+4211:43+431m--1197.98268mSECRBilaspur, Chhattisgarh
26BSPBilaspur Junction (8)X  12:30+1013:00+1630m--1204.433271mSECRBilaspur, Chhattisgarh
27DPHDadhapara (3)  13:12+2513:13+261m--1211.146272mSECRBilaspur, Chhattisgarh
28CHBTChakarbhathaX  13:17-13:18-1m--1214.158285mSECRBilaspur, Chhattisgarh
29BYLBelha  13:24+2413:25+251m--1219.966269mSECRCollege Road, Chhattisgarh
30DGSDagoriX  13:32+2613:33+271m--1227.655254mSECRCollege Road, Chhattisgarh
31NPINipaniaX  13:42+2913:43+311m--1235.980259mSECRNational Highway 200, Chhattisgarh
32BYTBhatapara (4)X  13:54+2413:55+251m--1250.677270mSECRBanjari Road, Chhattisgarh
33HNHathbandh  14:07+4114:08+431m--1265.946283mSECRRaipur, Chhattisgarh
34TLDTilda (3)  14:22+3514:23+391m--1276.661291mSECRBanjari Rd, Chhattisgarh
35BKTHBaikunthXO  14:29+3514:30+351m--1282.836287mSECRBanjari Rd, Chhattisgarh
36SLHSiliariX  14:44+4314:45+471m--1291.141280mSECRBanjari Rd, Chhattisgarh
37MDHMandharX  14:59+4115:00+431m--1300.757281mSECRDonde Kalan, Chhattisgarh
38URKUrkura  15:09+4115:10+461m--1309.226275mSECRRaipur, Chhattisgarh
39WRCWRS Colony PHXO  15:17-15:18-1m--1312.25286mSECRRaipur, Chhattisgarh
40RRaipur Junction (6)XO  15:50+2016:30+1740m--1314.827297mSECRRaipur, Chhattisgarh
41SRWNSaraswatinagar (2)X  16:35-16:36-1m--1317.140291mSECRRaipur, Chhattisgarh
42SZBSarona Cabin (2)X  16:42+2716:43+271m--1321.162282mSECRRaipur, Chhattisgarh
43KMIKumhari (2)  16:49+1716:50+181m--1327.245287mSECRKumhari, Chhattisgarh
44DBECDevbaloda Charoda  17:00-17:01-1m--1334.835310mSECRBhilai, Chhattisgarh
45BIABhilai (2)X  17:07+1817:08+181m--1338.246309mSECRBhilai, Chhattisgarh
46BPHBBhilai Power House (3)X  17:14+617:15+61m--1342.830312mSECRBhilai, Chhattisgarh
47BQRBhilai Nagar (2)  17:24+1717:25+171m--1347.314298mSECRBhilai, Chhattisgarh
48DURGDurg Junction (6)X  17:45+817:50+95m--1351.880299mSECRPh: 91-788-2322059, Chhattisgarh
49RSMRasmaraX  17:56+2517:57+261m--1359.875292mSECRRasmada, Chhattisgarh
50MUPMurhipar  18:03+2618:04+281m--1367.360319mSECRRajnandgaon, Chhattisgarh
51PMSParmalkasaX  18:11+2818:12+281m--1374.359300mSECRRajnandgaon, Chhattisgarh
52RJNRaj Nandgaon (3)  18:20+1718:22+202m--1382.290313mSECRRajnandgaon, Chhattisgarh
53BAKLBakal  18:29+3418:30+351m--1392.867315mSECRRajnandgaon, Chhattisgarh
54MUAMusraXO  18:37+3518:38+351m--1400.666325mSECRRajnandgaon, Chhattisgarh
55JTRJatkanhar  18:44+3618:45+381m--1407.239330mSECRRajnandgaon, Chhattisgarh
56DGGDongargarh (2)X  18:55+3219:05+3210m--1413.866353mSECRDongargarh, Chhattisgarh
57PJBPaniajob (2)  19:12+3719:13+391m--1421.553398mSECRRajnandgaon, Chhattisgarh
58BTLBortalao (2)  19:23+3919:24+411m--1430.366409mSECRRajnandgaon, Chhattisgarh
59DKSDarekasa (2)X  19:31+4419:32+471m--1438.053381mSECRRajnandgaon, Chhattisgarh
60SKSSalekasa (2)  19:45+4419:46+481m--1449.556312mSECRRajnandgaon, Chhattisgarh
61DNLDhanoli (2)  19:54-19:55-1m--1457.072310mSECRAmgaon, Maharashtra
62AGNAmgaon (2)X  20:01+4120:02+421m--1464.244317mSECRGondia, Maharashtra
63GDMGudma (2)  20:17+4420:18+441m--1475.112323mSECRGondia, Maharashtra
64G•Gondia Junction (7)•  21:20+9-21487.0-316mSECRGondia 441601, Maharashtra
Scroll to Top
Scroll to Bottom